createdAt,value
2018-01-22T00:00:41.668Z,0.80
2018-01-22T00:03:09.936Z,0.80
2018-01-22T00:05:37.913Z,0.80
2018-01-22T00:08:05.432Z,0.70
2018-01-22T00:10:34.100Z,0.70
2018-01-22T00:13:01.729Z,0.60
2018-01-22T00:15:30.016Z,0.50
2018-01-22T00:17:58.332Z,0.50
2018-01-22T00:20:26.156Z,0.50
2018-01-22T00:22:55.055Z,0.30
2018-01-22T00:25:23.335Z,0.30
2018-01-22T00:27:50.859Z,0.20
2018-01-22T00:30:20.831Z,0.20
2018-01-22T00:32:48.369Z,0.20
2018-01-22T00:35:16.675Z,0.00
2018-01-22T00:37:44.812Z,0.10
2018-01-22T00:40:13.109Z,0.00
2018-01-22T00:42:40.629Z,0.00
2018-01-22T00:45:09.335Z,0.00
2018-01-22T00:47:38.236Z,-0.10
2018-01-22T00:50:05.787Z,-0.10
2018-01-22T00:52:33.361Z,-0.10
2018-01-22T00:55:00.907Z,-0.10
2018-01-22T00:57:29.222Z,-0.10
2018-01-22T00:59:57.000Z,-0.10
2018-01-22T01:02:24.974Z,-0.10
2018-01-22T01:04:53.027Z,0.00
2018-01-22T01:07:20.548Z,0.00
2018-01-22T01:09:48.856Z,0.00
2018-01-22T01:12:16.420Z,0.00
2018-01-22T01:14:43.941Z,0.00
2018-01-22T01:17:12.245Z,0.10
2018-01-22T01:19:40.212Z,0.10
2018-01-22T01:22:07.737Z,0.10
2018-01-22T01:24:36.063Z,0.10
2018-01-22T01:27:03.612Z,0.10
2018-01-22T01:29:31.148Z,0.10
2018-01-22T01:31:59.448Z,0.10
2018-01-22T01:34:27.416Z,0.00
2018-01-22T01:36:54.936Z,0.00
2018-01-22T01:39:23.776Z,0.00
2018-01-22T01:41:51.328Z,0.00
2018-01-22T01:44:19.520Z,0.00
2018-01-22T01:46:47.044Z,0.00
2018-01-22T01:49:15.191Z,0.00
2018-01-22T01:51:43.628Z,-0.10
2018-01-22T01:54:11.181Z,-0.10
2018-01-22T01:56:39.135Z,-0.10
2018-01-22T01:59:06.857Z,-0.10
2018-01-22T02:01:34.416Z,-0.20
2018-01-22T02:04:02.249Z,-0.20
2018-01-22T02:06:29.797Z,-0.20
2018-01-22T02:08:57.674Z,-0.20
2018-01-22T02:11:25.416Z,-0.30
2018-01-22T02:13:53.608Z,-0.30
2018-01-22T02:16:21.164Z,-0.30
2018-01-22T02:18:48.696Z,-0.20
2018-01-22T02:21:16.215Z,-0.20
2018-01-22T02:23:45.042Z,-0.20
2018-01-22T02:26:13.128Z,-0.20
2018-01-22T02:28:40.884Z,-0.20
2018-01-22T02:31:08.403Z,-0.10
2018-01-22T02:33:35.925Z,-0.10
2018-01-22T02:36:03.457Z,-0.10
2018-01-22T02:38:30.973Z,-0.10
2018-01-22T02:40:59.072Z,-0.10
2018-01-22T02:43:27.360Z,-0.10
2018-01-22T02:45:55.651Z,-0.10
2018-01-22T02:48:23.632Z,-0.10
2018-01-22T02:50:51.168Z,-0.10
2018-01-22T02:53:19.000Z,0.00
2018-01-22T02:55:46.524Z,0.00
2018-01-22T02:58:14.052Z,0.00
2018-01-22T03:00:41.581Z,0.00
2018-01-22T03:03:09.450Z,0.10
2018-01-22T03:05:37.021Z,0.10
2018-01-22T03:08:05.333Z,0.10
2018-01-22T03:10:32.849Z,0.20
2018-01-22T03:13:00.396Z,0.20
2018-01-22T03:15:27.911Z,0.10
2018-01-22T03:17:55.452Z,0.20
2018-01-22T03:20:23.420Z,0.20
2018-01-22T03:22:51.184Z,0.20
2018-01-22T03:25:18.731Z,0.20
2018-01-22T03:27:47.040Z,0.20
2018-01-22T03:30:15.026Z,0.20
2018-01-22T03:32:42.554Z,0.20
2018-01-22T03:35:10.252Z,0.20
2018-01-22T03:37:37.794Z,0.30
2018-01-22T03:40:05.892Z,0.30
2018-01-22T03:42:33.428Z,0.30
2018-01-22T03:45:00.944Z,0.20
2018-01-22T03:47:29.422Z,0.20
2018-01-22T03:49:58.142Z,0.20
2018-01-22T03:52:25.687Z,0.20
2018-01-22T03:54:53.204Z,0.20
2018-01-22T03:57:20.733Z,0.20
2018-01-22T03:59:49.029Z,0.20
2018-01-22T04:02:17.008Z,0.20
2018-01-22T04:04:45.141Z,0.20
2018-01-22T04:07:17.500Z,0.20
2018-01-22T04:09:45.073Z,0.20
2018-01-22T04:12:12.623Z,0.20
2018-01-22T04:14:40.185Z,0.20
2018-01-22T04:17:07.716Z,0.20
2018-01-22T04:19:36.046Z,0.20
2018-01-22T04:22:03.920Z,0.20
2018-01-22T04:24:31.461Z,0.30
2018-01-22T04:26:59.348Z,0.30
2018-01-22T04:29:26.892Z,0.20
2018-01-22T04:31:54.472Z,0.30
2018-01-22T04:34:22.015Z,0.30
2018-01-22T04:36:49.864Z,0.30
2018-01-22T04:39:17.385Z,0.30
2018-01-22T04:41:45.712Z,0.30
2018-01-22T04:44:13.581Z,0.30
2018-01-22T04:46:41.889Z,0.30
2018-01-22T04:49:10.228Z,0.30
2018-01-22T04:51:39.188Z,0.30
2018-01-22T04:54:07.519Z,0.40
2018-01-22T04:56:35.061Z,0.40
2018-01-22T04:59:02.800Z,0.50
2018-01-22T05:01:31.116Z,0.50
2018-01-22T05:03:58.683Z,0.50
2018-01-22T05:06:26.214Z,0.50
2018-01-22T05:08:54.092Z,0.50
2018-01-22T05:11:21.692Z,0.50
2018-01-22T05:13:49.238Z,0.50
2018-01-22T05:16:17.035Z,0.50
2018-01-22T05:18:46.039Z,0.50
2018-01-22T05:21:14.363Z,0.50
2018-01-22T05:23:41.900Z,0.40
2018-01-22T05:26:10.188Z,0.50
2018-01-22T05:28:38.039Z,0.50
2018-01-22T05:31:05.591Z,0.50
2018-01-22T05:33:33.268Z,0.50
2018-01-22T05:36:00.997Z,0.50
2018-01-22T05:38:29.292Z,0.50
2018-01-22T05:40:56.848Z,0.50
2018-01-22T05:43:25.278Z,0.50
2018-01-22T05:45:52.827Z,0.50
2018-01-22T05:48:20.874Z,0.40
2018-01-22T05:50:48.425Z,0.50
2018-01-22T05:53:15.952Z,0.50
2018-01-22T05:55:44.434Z,0.50
2018-01-22T05:58:12.764Z,0.60
2018-01-22T06:00:40.286Z,0.50
2018-01-22T06:03:08.596Z,0.60
2018-01-22T06:05:36.540Z,0.50
2018-01-22T06:08:04.076Z,0.60
2018-01-22T06:10:32.857Z,0.60
2018-01-22T06:13:00.376Z,0.60
2018-01-22T06:15:27.900Z,0.60
2018-01-22T06:17:56.211Z,0.60
2018-01-22T06:20:23.786Z,0.60
2018-01-22T06:22:51.295Z,0.60
2018-01-22T06:25:20.029Z,0.70
2018-01-22T06:27:47.556Z,0.70
2018-01-22T06:30:15.103Z,0.70
2018-01-22T06:32:42.675Z,0.70
2018-01-22T06:35:10.205Z,0.70
2018-01-22T06:37:41.040Z,0.70
2018-01-22T06:40:10.048Z,0.70
2018-01-22T06:42:38.787Z,0.70
2018-01-22T06:45:07.041Z,0.70
2018-01-22T06:47:34.589Z,0.70
2018-01-22T06:50:02.116Z,0.70
2018-01-22T06:52:30.450Z,0.70
2018-01-22T06:54:58.910Z,0.70
2018-01-22T06:57:26.469Z,0.70
2018-01-22T06:59:54.008Z,0.70
2018-01-22T07:02:23.545Z,0.80
2018-01-22T07:04:51.404Z,0.70
2018-01-22T07:07:19.180Z,0.70
2018-01-22T07:09:46.708Z,0.80
2018-01-22T07:12:15.028Z,0.80
2018-01-22T07:14:43.021Z,0.80
2018-01-22T07:17:10.552Z,0.80
2018-01-22T07:19:39.088Z,0.80
2018-01-22T07:22:06.641Z,0.70
2018-01-22T07:24:34.932Z,0.70
2018-01-22T07:27:03.979Z,0.70
2018-01-22T07:29:31.492Z,0.70
2018-01-22T07:31:59.044Z,0.70
2018-01-22T07:34:26.917Z,0.70
2018-01-22T07:36:54.475Z,0.70
2018-01-22T07:39:21.999Z,0.70
2018-01-22T07:41:49.517Z,0.70
2018-01-22T07:44:17.808Z,0.80
2018-01-22T07:46:45.351Z,0.80
2018-01-22T07:49:12.870Z,0.80
2018-01-22T07:51:41.679Z,0.90
2018-01-22T07:54:09.227Z,0.90
2018-01-22T07:56:40.892Z,0.90
2018-01-22T07:59:10.949Z,0.90
2018-01-22T08:01:38.491Z,0.90
2018-01-22T08:04:07.994Z,1.00
2018-01-22T08:06:35.513Z,1.00
2018-01-22T08:09:04.712Z,1.10
2018-01-22T08:11:33.044Z,1.10
2018-01-22T08:14:00.587Z,1.10
2018-01-22T08:16:28.856Z,1.10
2018-01-22T08:18:56.399Z,1.10
2018-01-22T08:21:24.124Z,1.10
2018-01-22T08:23:51.950Z,1.20
2018-01-22T08:26:20.563Z,1.20
2018-01-22T08:28:48.112Z,1.30
2018-01-22T08:31:15.779Z,1.30
2018-01-22T08:33:44.013Z,1.40
2018-01-22T08:36:11.563Z,1.40
2018-01-22T08:38:40.381Z,1.60
2018-01-22T08:41:08.613Z,1.60
2018-01-22T08:43:37.245Z,1.50
2018-01-22T08:46:05.618Z,1.50
2018-01-22T08:48:33.172Z,1.60
2018-01-22T08:51:00.734Z,1.60
2018-01-22T08:53:30.692Z,1.70
2018-01-22T08:55:58.248Z,1.70
2018-01-22T08:58:25.772Z,1.70
2018-01-22T09:00:53.344Z,1.70
2018-01-22T09:03:20.883Z,1.70
2018-01-22T09:05:48.457Z,1.70
2018-01-22T09:08:16.393Z,1.80
2018-01-22T09:10:44.711Z,1.70
2018-01-22T09:13:12.270Z,1.80
2018-01-22T09:15:39.790Z,1.80
2018-01-22T09:18:08.091Z,1.80
2018-01-22T09:20:35.628Z,1.80
2018-01-22T09:23:03.935Z,1.90
2018-01-22T09:25:32.237Z,1.90
2018-01-22T09:27:59.812Z,1.90
2018-01-22T09:30:27.337Z,1.90
2018-01-22T09:32:55.468Z,2.00
2018-01-22T09:35:23.760Z,2.20
2018-01-22T09:37:52.243Z,2.20
2018-01-22T09:40:19.760Z,2.30
2018-01-22T09:42:47.276Z,2.40
2018-01-22T09:45:15.407Z,2.40
2018-01-22T09:47:44.119Z,2.50
2018-01-22T09:50:11.668Z,2.50
2018-01-22T09:52:40.042Z,2.50
2018-01-22T09:55:09.149Z,2.60
2018-01-22T09:57:39.363Z,2.60
2018-01-22T10:00:07.682Z,2.80
2018-01-22T10:02:35.225Z,2.80
2018-01-22T10:05:02.749Z,3.00
2018-01-22T10:07:31.041Z,3.00
2018-01-22T10:09:58.592Z,2.90
2018-01-22T10:12:27.184Z,2.90
2018-01-22T10:14:55.512Z,2.80
2018-01-22T10:17:26.117Z,2.80
2018-01-22T10:19:53.950Z,2.80
2018-01-22T10:22:22.546Z,2.60
2018-01-22T10:24:50.069Z,2.60
2018-01-22T10:27:17.616Z,2.60
2018-01-22T10:29:45.720Z,2.60
2018-01-22T10:32:14.460Z,2.80
2018-01-22T10:34:41.992Z,2.80
2018-01-22T10:37:10.199Z,2.80
2018-01-22T10:39:37.746Z,2.80
2018-01-22T10:42:05.620Z,2.80
2018-01-22T10:44:33.991Z,2.80
2018-01-22T10:47:01.541Z,2.70
2018-01-22T10:49:29.076Z,2.80
2018-01-22T10:51:57.375Z,2.80
2018-01-22T10:54:24.927Z,2.80
2018-01-22T10:56:52.820Z,2.90
2018-01-22T10:59:20.336Z,2.90
2018-01-22T11:01:48.660Z,2.90
2018-01-22T11:04:16.268Z,2.90
2018-01-22T11:06:44.600Z,3.00
2018-01-22T11:09:14.296Z,3.00
2018-01-22T11:11:41.865Z,3.20
2018-01-22T11:14:09.396Z,3.30
2018-01-22T11:16:37.297Z,3.40
2018-01-22T11:19:05.453Z,3.50
2018-01-22T11:21:33.044Z,3.60
2018-01-22T11:24:00.897Z,3.70
2018-01-22T11:26:28.439Z,4.00
2018-01-22T11:28:56.276Z,4.20
2018-01-22T11:31:25.170Z,4.40
2018-01-22T11:33:53.319Z,4.40
2018-01-22T11:36:26.334Z,4.60
2018-01-22T11:38:53.950Z,4.60
2018-01-22T11:41:21.773Z,4.80
2018-01-22T11:43:49.315Z,4.80
2018-01-22T11:46:17.623Z,4.50
2018-01-22T11:48:45.185Z,4.50
2018-01-22T11:51:13.048Z,4.40
2018-01-22T11:53:40.588Z,4.40
2018-01-22T11:56:08.996Z,4.30
2018-01-22T11:58:36.992Z,4.20
2018-01-22T12:01:05.000Z,4.10
2018-01-22T12:03:33.316Z,4.10
2018-01-22T12:06:02.429Z,4.10
2018-01-22T12:08:29.947Z,4.00
2018-01-22T12:10:57.465Z,4.10
2018-01-22T12:13:25.091Z,4.20
2018-01-22T12:15:53.245Z,4.20
2018-01-22T12:18:20.843Z,4.20
2018-01-22T12:20:50.976Z,4.30
2018-01-22T12:23:18.521Z,4.30
2018-01-22T12:25:46.067Z,4.30
2018-01-22T12:28:13.853Z,4.30
2018-01-22T12:30:42.176Z,4.20
2018-01-22T12:33:10.405Z,4.20
2018-01-22T12:35:37.956Z,4.20
2018-01-22T12:38:06.253Z,4.30
2018-01-22T12:40:33.791Z,4.40
2018-01-22T12:43:01.316Z,4.50
2018-01-22T12:45:29.295Z,4.50
2018-01-22T12:47:56.885Z,4.50
2018-01-22T12:50:24.852Z,4.60
2018-01-22T12:52:52.783Z,4.80
2018-01-22T12:55:20.350Z,4.80
2018-01-22T12:57:47.918Z,4.90
2018-01-22T13:00:15.452Z,4.90
2018-01-22T13:02:44.026Z,5.10
2018-01-22T13:05:12.296Z,5.20
2018-01-22T13:07:40.614Z,5.20
2018-01-22T13:10:08.362Z,5.20
2018-01-22T13:12:36.136Z,5.40
2018-01-22T13:15:03.848Z,5.50
2018-01-22T13:17:31.397Z,5.60
2018-01-22T13:19:58.973Z,5.80
2018-01-22T13:22:27.438Z,6.10
2018-01-22T13:24:54.980Z,6.10
2018-01-22T13:27:22.488Z,6.00
2018-01-22T13:29:50.056Z,6.10
2018-01-22T13:32:17.569Z,6.00
2018-01-22T13:34:45.108Z,5.80
2018-01-22T13:37:12.938Z,5.50
2018-01-22T13:39:40.500Z,5.40
2018-01-22T13:42:08.405Z,5.30
2018-01-22T13:44:35.960Z,5.10
2018-01-22T13:47:04.386Z,4.90
2018-01-22T13:49:32.668Z,4.80
2018-01-22T13:52:00.216Z,4.80
2018-01-22T13:54:29.349Z,4.80
2018-01-22T13:56:56.872Z,4.80
2018-01-22T13:59:27.255Z,4.80
2018-01-22T14:01:54.801Z,4.80
2018-01-22T14:04:22.427Z,4.80
2018-01-22T14:06:50.755Z,4.70
2018-01-22T14:09:18.304Z,4.70
2018-01-22T14:11:46.977Z,4.60
2018-01-22T14:14:14.516Z,4.50
2018-01-22T14:16:43.245Z,4.50
2018-01-22T14:19:11.466Z,4.50
2018-01-22T14:21:40.453Z,4.50
2018-01-22T14:24:07.977Z,4.50
2018-01-22T14:26:35.533Z,4.50
2018-01-22T14:31:56.509Z,4.50
2018-01-22T14:34:25.213Z,4.30
2018-01-22T14:36:52.728Z,4.30
2018-01-22T14:39:24.137Z,4.40
2018-01-22T14:41:51.640Z,4.40
2018-01-22T14:44:19.172Z,4.30
2018-01-22T14:46:47.148Z,4.30
2018-01-22T14:49:15.129Z,4.30
2018-01-22T14:51:43.105Z,4.20
2018-01-22T14:54:10.636Z,4.30
2018-01-22T14:56:39.098Z,4.30
2018-01-22T14:59:06.780Z,4.30
2018-01-22T15:01:34.434Z,4.30
2018-01-22T15:04:01.979Z,4.30
2018-01-22T15:06:29.988Z,4.20
2018-01-22T15:08:58.300Z,4.20
2018-01-22T15:11:26.916Z,4.00
2018-01-22T15:13:54.482Z,4.00
2018-01-22T15:16:22.020Z,4.00
2018-01-22T15:18:49.582Z,4.00
2018-01-22T15:21:17.137Z,3.90
2018-01-22T15:23:45.548Z,3.90
2018-01-22T15:26:13.192Z,3.90
2018-01-22T15:28:40.735Z,3.90
2018-01-22T15:31:08.268Z,3.90
2018-01-22T15:33:35.842Z,3.90
2018-01-22T15:36:06.712Z,3.80
2018-01-22T15:38:34.237Z,3.80
2018-01-22T15:41:02.555Z,3.80
2018-01-22T15:43:30.137Z,3.80
2018-01-22T15:45:57.680Z,3.70
2018-01-22T15:48:25.616Z,3.70
2018-01-22T15:50:53.932Z,3.50
2018-01-22T15:53:21.500Z,3.50
2018-01-22T15:55:49.039Z,3.40
2018-01-22T15:58:17.292Z,3.30
2018-01-22T16:00:44.847Z,3.40
2018-01-22T16:03:13.177Z,3.30
2018-01-22T16:05:40.724Z,3.30
2018-01-22T16:08:08.343Z,3.20
2018-01-22T16:10:36.660Z,3.10
2018-01-22T16:13:04.232Z,3.10
2018-01-22T16:15:31.747Z,3.10
2018-01-22T16:17:59.265Z,3.00
2018-01-22T16:20:26.960Z,3.10
2018-01-22T16:22:55.293Z,3.10
2018-01-22T16:25:22.837Z,3.20
2018-01-22T16:27:50.426Z,3.30
2018-01-22T16:30:17.946Z,3.40
2018-01-22T16:32:46.825Z,3.50
2018-01-22T16:35:14.392Z,3.50
2018-01-22T16:37:41.932Z,3.40
2018-01-22T16:40:09.495Z,3.40
2018-01-22T16:42:37.030Z,3.40
2018-01-22T16:45:05.330Z,3.30
2018-01-22T16:47:38.520Z,3.30
2018-01-22T16:50:06.100Z,3.20
2018-01-22T16:52:33.671Z,3.30
2018-01-22T16:55:01.235Z,3.20
2018-01-22T16:57:28.804Z,3.30
2018-01-22T16:59:56.364Z,3.30
2018-01-22T17:02:23.915Z,3.20
2018-01-22T17:04:51.440Z,3.30
2018-01-22T17:07:19.921Z,3.30
2018-01-22T17:09:47.475Z,3.30
2018-01-22T17:12:15.016Z,3.30
2018-01-22T17:14:43.471Z,3.30
2018-01-22T17:17:23.508Z,3.30
2018-01-22T17:19:51.073Z,3.30
2018-01-22T17:22:18.657Z,3.30
2018-01-22T17:24:46.211Z,3.20
2018-01-22T17:27:13.765Z,3.20
2018-01-22T17:29:41.709Z,3.20
2018-01-22T17:32:09.561Z,3.20
2018-01-22T17:34:49.840Z,3.20
2018-01-22T17:37:24.700Z,3.20
2018-01-22T17:39:52.460Z,3.20
2018-01-22T17:42:20.001Z,3.30
2018-01-22T17:44:47.978Z,3.20
2018-01-22T17:47:15.504Z,3.20
2018-01-22T17:49:43.066Z,3.30
2018-01-22T17:52:11.317Z,3.20
2018-01-22T17:54:41.812Z,3.20
2018-01-22T17:57:09.368Z,3.20
2018-01-22T17:59:36.991Z,3.20
2018-01-22T18:02:04.869Z,3.20
2018-01-22T18:04:32.410Z,3.30
2018-01-22T18:06:59.983Z,3.30
2018-01-22T18:09:28.022Z,3.40
2018-01-22T18:11:56.037Z,3.40
2018-01-22T18:14:23.560Z,3.40
2018-01-22T18:16:51.141Z,3.40
2018-01-22T18:19:19.027Z,3.40
2018-01-22T18:21:46.580Z,3.30
2018-01-22T18:24:14.105Z,3.40
2018-01-22T18:26:41.648Z,3.40
2018-01-22T18:29:09.242Z,3.30
2018-01-22T18:31:36.760Z,3.30
2018-01-22T18:34:05.048Z,3.30
2018-01-22T18:36:33.408Z,3.30
2018-01-22T18:39:00.956Z,3.30
2018-01-22T18:41:28.561Z,3.30
2018-01-22T18:43:56.104Z,3.30
2018-01-22T18:46:24.427Z,3.40
2018-01-22T18:48:51.943Z,3.30
2018-01-22T18:51:21.091Z,3.30
2018-01-22T18:53:48.648Z,3.30
2018-01-22T18:56:16.732Z,3.30
2018-01-22T18:58:44.956Z,3.30
2018-01-22T19:01:13.267Z,3.40
2018-01-22T19:03:40.790Z,3.40
2018-01-22T19:06:08.349Z,3.40
2018-01-22T19:08:36.790Z,3.40
2018-01-22T19:11:04.626Z,3.40
2018-01-22T19:13:32.172Z,3.40
2018-01-22T19:16:00.348Z,3.50
2018-01-22T19:18:28.777Z,3.50
2018-01-22T19:20:56.327Z,3.50
2018-01-22T19:23:23.854Z,3.50
2018-01-22T19:25:52.084Z,3.40
2018-01-22T19:28:20.416Z,3.40
2018-01-22T19:30:48.383Z,3.40
2018-01-22T19:33:15.951Z,3.40
2018-01-22T19:35:43.512Z,3.40
2018-01-22T19:38:11.045Z,3.50
2018-01-22T19:40:39.252Z,3.50
2018-01-22T19:43:07.640Z,3.50
2018-01-22T19:45:35.175Z,3.50
2018-01-22T19:48:02.770Z,3.50
2018-01-22T19:50:31.441Z,3.70
2018-01-22T19:52:59.555Z,4.10
2018-01-22T19:55:27.120Z,4.40
2018-01-22T19:57:54.645Z,4.80
2018-01-22T20:00:22.172Z,5.10
2018-01-22T20:02:49.720Z,5.40
2018-01-22T20:05:17.992Z,5.50
2018-01-22T20:07:45.534Z,5.60
2018-01-22T20:10:13.101Z,5.70
2018-01-22T20:12:40.658Z,5.80
2018-01-22T20:15:08.913Z,5.90
2018-01-22T20:17:37.880Z,5.80
2018-01-22T20:20:05.427Z,5.80
2018-01-22T20:22:33.643Z,5.70
2018-01-22T20:25:01.951Z,5.40
2018-01-22T20:27:29.474Z,5.40
2018-01-22T20:29:57.807Z,5.20
2018-01-22T20:32:25.649Z,5.20
2018-01-22T20:34:54.087Z,5.30
2018-01-22T20:37:22.397Z,5.30
2018-01-22T20:39:50.275Z,5.30
2018-01-22T20:42:18.235Z,5.30
2018-01-22T20:44:45.796Z,5.20
2018-01-22T20:47:13.320Z,5.20
2018-01-22T20:49:40.861Z,5.20
2018-01-22T20:52:08.389Z,5.10
2018-01-22T20:54:35.936Z,5.10
2018-01-22T20:57:04.149Z,4.90
2018-01-22T20:59:31.693Z,4.80
2018-01-22T21:01:59.216Z,4.60
2018-01-22T21:04:26.747Z,4.50
2018-01-22T21:06:56.783Z,4.40
2018-01-22T21:09:25.115Z,4.30
2018-01-22T21:11:52.664Z,4.30
2018-01-22T21:14:20.188Z,4.30
2018-01-22T21:16:48.471Z,4.40
2018-01-22T21:19:16.219Z,4.40
2018-01-22T21:21:44.537Z,4.50
2018-01-22T21:24:12.381Z,4.40
2018-01-22T21:26:39.924Z,4.40
2018-01-22T21:29:08.257Z,4.10
2018-01-22T21:31:35.907Z,4.10
2018-01-22T21:34:03.444Z,4.00
2018-01-22T21:36:31.537Z,4.10
2018-01-22T21:38:59.521Z,4.00
2018-01-22T21:41:27.038Z,4.10
2018-01-22T21:43:54.588Z,4.20
2018-01-22T21:46:23.036Z,4.60
2018-01-22T21:48:50.616Z,4.60
2018-01-22T21:51:18.942Z,4.90
2018-01-22T21:53:46.488Z,4.90
2018-01-22T21:56:14.436Z,5.00
2018-01-22T21:58:43.231Z,5.00
2018-01-22T22:01:11.216Z,5.00
2018-01-22T22:03:38.753Z,5.00
2018-01-22T22:06:07.043Z,4.80
2018-01-22T22:08:34.616Z,4.80
2018-01-22T22:11:02.383Z,4.90
2018-01-22T22:13:29.932Z,4.90
2018-01-22T22:15:57.509Z,4.90
2018-01-22T22:18:25.465Z,5.00
2018-01-22T22:20:53.840Z,5.00
2018-01-22T22:23:21.686Z,4.90
2018-01-22T22:25:49.994Z,5.00
2018-01-22T22:28:17.575Z,5.00
2018-01-22T22:30:45.112Z,5.00
2018-01-22T22:33:13.080Z,5.00
2018-01-22T22:35:40.587Z,5.00
2018-01-22T22:38:08.806Z,5.00
2018-01-22T22:40:36.349Z,4.90
2018-01-22T22:43:04.627Z,5.10
2018-01-22T22:45:32.517Z,5.10
2018-01-22T22:48:00.076Z,5.20
2018-01-22T22:50:27.621Z,5.10
2018-01-22T22:52:55.636Z,5.00
2018-01-22T22:55:23.929Z,5.10
2018-01-22T22:57:51.496Z,5.00
2018-01-22T23:00:19.817Z,5.10
2018-01-22T23:02:50.071Z,5.10
2018-01-22T23:05:18.172Z,5.10
2018-01-22T23:07:46.502Z,5.20
2018-01-22T23:10:14.073Z,5.20
2018-01-22T23:12:41.671Z,5.30
2018-01-22T23:15:09.991Z,5.20
2018-01-22T23:17:38.008Z,5.20
2018-01-22T23:20:05.564Z,5.20
2018-01-22T23:22:33.103Z,5.20
2018-01-22T23:25:00.643Z,5.20
2018-01-22T23:27:28.313Z,5.20
2018-01-22T23:29:56.539Z,5.30
2018-01-22T23:32:24.872Z,5.30
2018-01-22T23:34:52.395Z,5.30
2018-01-22T23:37:19.916Z,5.30
2018-01-22T23:39:47.478Z,5.30
2018-01-22T23:42:15.031Z,5.20
2018-01-22T23:44:42.551Z,5.20
2018-01-22T23:47:10.072Z,5.10
2018-01-22T23:49:38.388Z,5.10
2018-01-22T23:52:07.166Z,5.10
2018-01-22T23:54:34.685Z,5.10
2018-01-22T23:57:02.208Z,5.20
2018-01-22T23:59:29.746Z,5.10
